sensor_id;sensor_type;location;lat;lon;timestamp;P1;durP1;ratioP1;P2;durP2;ratioP2
40433;SDS011;26146;51.114;5.654;2022-09-03T00:00:14;6.22;;;1.52;;
40433;SDS011;26146;51.114;5.654;2022-09-03T00:04:59;6.30;;;1.40;;
40433;SDS011;26146;51.114;5.654;2022-09-03T00:09:02;6.13;;;1.75;;
40433;SDS011;26146;51.114;5.654;2022-09-03T00:13:11;8.00;;;1.80;;
40433;SDS011;26146;51.114;5.654;2022-09-03T00:17:18;6.35;;;2.00;;
40433;SDS011;26146;51.114;5.654;2022-09-03T00:21:32;7.63;;;1.73;;
40433;SDS011;26146;51.114;5.654;2022-09-03T00:29:39;8.30;;;1.70;;
40433;SDS011;26146;51.114;5.654;2022-09-03T00:33:46;6.32;;;1.80;;
40433;SDS011;26146;51.114;5.654;2022-09-03T00:37:52;7.75;;;1.73;;
40433;SDS011;26146;51.114;5.654;2022-09-03T00:41:57;5.90;;;1.90;;
40433;SDS011;26146;51.114;5.654;2022-09-03T00:59:34;6.13;;;1.58;;
40433;SDS011;26146;51.114;5.654;2022-09-03T01:03:51;5.90;;;1.80;;
40433;SDS011;26146;51.114;5.654;2022-09-03T01:30:05;5.57;;;1.50;;
40433;SDS011;26146;51.114;5.654;2022-09-03T01:38:52;5.57;;;1.58;;
40433;SDS011;26146;51.114;5.654;2022-09-03T02:00:08;5.70;;;2.03;;
40433;SDS011;26146;51.114;5.654;2022-09-03T02:04:13;5.45;;;1.90;;
40433;SDS011;26146;51.114;5.654;2022-09-03T02:08:17;5.93;;;1.95;;
40433;SDS011;26146;51.114;5.654;2022-09-03T02:12:18;6.20;;;1.88;;
40433;SDS011;26146;51.114;5.654;2022-09-03T02:16:21;5.93;;;1.90;;
40433;SDS011;26146;51.114;5.654;2022-09-03T02:20:25;6.10;;;1.90;;
40433;SDS011;26146;51.114;5.654;2022-09-03T02:24:28;5.28;;;1.88;;
40433;SDS011;26146;51.114;5.654;2022-09-03T02:28:29;5.32;;;1.77;;
40433;SDS011;26146;51.114;5.654;2022-09-03T02:32:32;7.03;;;1.80;;
40433;SDS011;26146;51.114;5.654;2022-09-03T02:36:33;6.10;;;1.88;;
40433;SDS011;26146;51.114;5.654;2022-09-03T02:40:45;5.40;;;1.65;;
40433;SDS011;26146;51.114;5.654;2022-09-03T02:44:53;6.15;;;1.60;;
40433;SDS011;26146;51.114;5.654;2022-09-03T02:49:14;5.80;;;1.90;;
40433;SDS011;26146;51.114;5.654;2022-09-03T02:53:15;6.53;;;1.90;;
40433;SDS011;26146;51.114;5.654;2022-09-03T02:57:16;5.35;;;1.50;;
40433;SDS011;26146;51.114;5.654;2022-09-03T03:01:17;5.65;;;1.60;;
40433;SDS011;26146;51.114;5.654;2022-09-03T03:05:20;5.20;;;1.50;;
40433;SDS011;26146;51.114;5.654;2022-09-03T03:09:26;6.43;;;1.58;;
40433;SDS011;26146;51.114;5.654;2022-09-03T03:13:28;5.95;;;1.50;;
40433;SDS011;26146;51.114;5.654;2022-09-03T03:17:30;3.90;;;1.20;;
40433;SDS011;26146;51.114;5.654;2022-09-03T03:21:31;6.82;;;1.60;;
40433;SDS011;26146;51.114;5.654;2022-09-03T03:25:32;5.20;;;1.77;;
40433;SDS011;26146;51.114;5.654;2022-09-03T03:29:34;5.00;;;1.52;;
40433;SDS011;26146;51.114;5.654;2022-09-03T03:33:35;4.80;;;1.60;;
40433;SDS011;26146;51.114;5.654;2022-09-03T03:37:37;5.88;;;1.50;;
40433;SDS011;26146;51.114;5.654;2022-09-03T03:41:38;11.32;;;1.70;;
40433;SDS011;26146;51.114;5.654;2022-09-03T03:45:39;5.35;;;1.60;;
40433;SDS011;26146;51.114;5.654;2022-09-03T03:49:40;5.28;;;1.55;;
40433;SDS011;26146;51.114;5.654;2022-09-03T03:53:41;6.43;;;1.85;;
40433;SDS011;26146;51.114;5.654;2022-09-03T03:57:42;6.40;;;1.95;;
40433;SDS011;26146;51.114;5.654;2022-09-03T04:01:43;6.05;;;1.67;;
40433;SDS011;26146;51.114;5.654;2022-09-03T04:05:57;5.35;;;1.80;;
40433;SDS011;26146;51.114;5.654;2022-09-03T04:14:01;6.63;;;1.85;;
40433;SDS011;26146;51.114;5.654;2022-09-03T04:18:02;5.90;;;1.98;;
40433;SDS011;26146;51.114;5.654;2022-09-03T04:22:03;6.43;;;1.80;;
40433;SDS011;26146;51.114;5.654;2022-09-03T04:26:04;5.38;;;2.00;;
40433;SDS011;26146;51.114;5.654;2022-09-03T04:30:06;7.20;;;1.73;;
40433;SDS011;26146;51.114;5.654;2022-09-03T04:34:08;9.52;;;1.92;;
40433;SDS011;26146;51.114;5.654;2022-09-03T04:38:09;8.35;;;1.95;;
40433;SDS011;26146;51.114;5.654;2022-09-03T04:42:10;7.05;;;1.90;;
40433;SDS011;26146;51.114;5.654;2022-09-03T04:46:12;5.53;;;2.10;;
40433;SDS011;26146;51.114;5.654;2022-09-03T04:50:14;8.38;;;2.45;;
40433;SDS011;26146;51.114;5.654;2022-09-03T04:54:17;19.02;;;3.53;;
40433;SDS011;26146;51.114;5.654;2022-09-03T04:58:18;6.82;;;1.90;;
40433;SDS011;26146;51.114;5.654;2022-09-03T05:02:19;5.53;;;1.60;;
40433;SDS011;26146;51.114;5.654;2022-09-03T05:06:20;5.28;;;1.60;;
40433;SDS011;26146;51.114;5.654;2022-09-03T05:10:21;8.27;;;1.60;;
40433;SDS011;26146;51.114;5.654;2022-09-03T05:14:23;5.85;;;1.80;;
40433;SDS011;26146;51.114;5.654;2022-09-03T05:18:24;5.68;;;1.80;;
40433;SDS011;26146;51.114;5.654;2022-09-03T05:22:25;6.18;;;1.85;;
40433;SDS011;26146;51.114;5.654;2022-09-03T05:26:27;7.82;;;1.95;;
40433;SDS011;26146;51.114;5.654;2022-09-03T05:30:30;6.57;;;1.80;;
40433;SDS011;26146;51.114;5.654;2022-09-03T05:34:31;8.18;;;1.58;;
40433;SDS011;26146;51.114;5.654;2022-09-03T05:38:32;7.43;;;1.70;;
40433;SDS011;26146;51.114;5.654;2022-09-03T05:42:33;6.03;;;1.67;;
40433;SDS011;26146;51.114;5.654;2022-09-03T05:46:37;6.80;;;1.70;;
40433;SDS011;26146;51.114;5.654;2022-09-03T05:50:38;6.55;;;1.70;;
40433;SDS011;26146;51.114;5.654;2022-09-03T05:54:41;8.15;;;1.92;;
40433;SDS011;26146;51.114;5.654;2022-09-03T05:58:42;7.82;;;1.80;;
40433;SDS011;26146;51.114;5.654;2022-09-03T06:02:49;7.03;;;1.70;;
40433;SDS011;26146;51.114;5.654;2022-09-03T06:06:53;4.90;;;1.60;;
40433;SDS011;26146;51.114;5.654;2022-09-03T06:11:00;5.43;;;1.52;;
40433;SDS011;26146;51.114;5.654;2022-09-03T06:15:04;6.45;;;1.50;;
40433;SDS011;26146;51.114;5.654;2022-09-03T06:19:06;5.85;;;1.48;;
40433;SDS011;26146;51.114;5.654;2022-09-03T06:23:10;5.43;;;1.48;;
40433;SDS011;26146;51.114;5.654;2022-09-03T06:27:10;4.20;;;1.20;;
40433;SDS011;26146;51.114;5.654;2022-09-03T06:31:12;8.40;;;1.33;;
40433;SDS011;26146;51.114;5.654;2022-09-03T06:35:14;5.03;;;1.30;;
40433;SDS011;26146;51.114;5.654;2022-09-03T06:39:15;4.95;;;1.08;;
40433;SDS011;26146;51.114;5.654;2022-09-03T06:43:16;5.55;;;1.10;;
40433;SDS011;26146;51.114;5.654;2022-09-03T06:47:17;5.93;;;1.20;;
40433;SDS011;26146;51.114;5.654;2022-09-03T06:51:19;8.15;;;1.15;;
40433;SDS011;26146;51.114;5.654;2022-09-03T06:55:24;4.03;;;1.02;;
40433;SDS011;26146;51.114;5.654;2022-09-03T06:59:25;5.07;;;1.00;;
40433;SDS011;26146;51.114;5.654;2022-09-03T07:03:26;4.28;;;1.10;;
40433;SDS011;26146;51.114;5.654;2022-09-03T07:07:27;4.97;;;1.05;;
40433;SDS011;26146;51.114;5.654;2022-09-03T07:11:28;5.05;;;0.85;;
40433;SDS011;26146;51.114;5.654;2022-09-03T07:15:31;4.78;;;1.17;;
40433;SDS011;26146;51.114;5.654;2022-09-03T07:19:32;4.25;;;1.00;;
40433;SDS011;26146;51.114;5.654;2022-09-03T07:23:36;4.30;;;1.05;;
40433;SDS011;26146;51.114;5.654;2022-09-03T07:27:38;5.97;;;0.90;;
40433;SDS011;26146;51.114;5.654;2022-09-03T07:31:40;6.05;;;0.90;;
40433;SDS011;26146;51.114;5.654;2022-09-03T07:35:41;3.95;;;1.00;;
40433;SDS011;26146;51.114;5.654;2022-09-03T07:39:42;5.18;;;0.98;;
40433;SDS011;26146;51.114;5.654;2022-09-03T07:43:46;10.13;;;1.35;;
40433;SDS011;26146;51.114;5.654;2022-09-03T07:47:50;4.88;;;1.00;;
40433;SDS011;26146;51.114;5.654;2022-09-03T07:51:50;6.25;;;0.95;;
40433;SDS011;26146;51.114;5.654;2022-09-03T07:55:53;15.57;;;1.90;;
40433;SDS011;26146;51.114;5.654;2022-09-03T08:00:02;4.95;;;0.90;;
40433;SDS011;26146;51.114;5.654;2022-09-03T08:04:05;4.00;;;0.93;;
40433;SDS011;26146;51.114;5.654;2022-09-03T08:08:09;4.13;;;0.93;;
40433;SDS011;26146;51.114;5.654;2022-09-03T08:12:10;5.40;;;1.10;;
40433;SDS011;26146;51.114;5.654;2022-09-03T08:16:11;3.78;;;0.90;;
40433;SDS011;26146;51.114;5.654;2022-09-03T08:20:13;5.43;;;1.00;;
40433;SDS011;26146;51.114;5.654;2022-09-03T08:24:16;5.30;;;0.90;;
40433;SDS011;26146;51.114;5.654;2022-09-03T08:32:20;6.18;;;1.08;;
40433;SDS011;26146;51.114;5.654;2022-09-03T08:36:25;5.15;;;0.90;;
40433;SDS011;26146;51.114;5.654;2022-09-03T08:40:29;5.05;;;1.00;;
40433;SDS011;26146;51.114;5.654;2022-09-03T08:48:50;5.55;;;1.10;;
40433;SDS011;26146;51.114;5.654;2022-09-03T08:57:01;4.10;;;1.00;;
40433;SDS011;26146;51.114;5.654;2022-09-03T09:05:49;5.18;;;1.30;;
40433;SDS011;26146;51.114;5.654;2022-09-03T09:14:15;5.07;;;1.20;;
40433;SDS011;26146;51.114;5.654;2022-09-03T09:22:50;6.38;;;1.27;;
40433;SDS011;26146;51.114;5.654;2022-09-03T09:26:59;6.25;;;1.20;;
40433;SDS011;26146;51.114;5.654;2022-09-03T09:31:08;5.13;;;1.20;;
40433;SDS011;26146;51.114;5.654;2022-09-03T09:35:17;5.53;;;1.30;;
40433;SDS011;26146;51.114;5.654;2022-09-03T09:39:18;5.93;;;1.13;;
40433;SDS011;26146;51.114;5.654;2022-09-03T09:43:19;5.85;;;1.30;;
40433;SDS011;26146;51.114;5.654;2022-09-03T09:47:25;6.65;;;1.00;;
40433;SDS011;26146;51.114;5.654;2022-09-03T09:51:29;6.55;;;1.20;;
40433;SDS011;26146;51.114;5.654;2022-09-03T09:55:31;5.65;;;1.20;;
40433;SDS011;26146;51.114;5.654;2022-09-03T09:59:32;5.32;;;1.30;;
40433;SDS011;26146;51.114;5.654;2022-09-03T10:03:34;5.57;;;1.20;;
40433;SDS011;26146;51.114;5.654;2022-09-03T10:07:35;6.55;;;1.30;;
40433;SDS011;26146;51.114;5.654;2022-09-03T10:11:36;5.05;;;1.10;;
40433;SDS011;26146;51.114;5.654;2022-09-03T10:28:38;5.95;;;1.45;;
40433;SDS011;26146;51.114;5.654;2022-09-03T10:36:55;6.55;;;1.63;;
40433;SDS011;26146;51.114;5.654;2022-09-03T11:03:19;5.93;;;1.50;;
40433;SDS011;26146;51.114;5.654;2022-09-03T11:07:49;6.93;;;1.55;;
40433;SDS011;26146;51.114;5.654;2022-09-03T11:11:58;6.93;;;1.65;;
40433;SDS011;26146;51.114;5.654;2022-09-03T11:16:07;5.68;;;1.60;;
40433;SDS011;26146;51.114;5.654;2022-09-03T11:20:19;5.82;;;1.38;;
40433;SDS011;26146;51.114;5.654;2022-09-03T11:24:22;5.15;;;1.50;;
40433;SDS011;26146;51.114;5.654;2022-09-03T11:32:52;5.93;;;1.67;;
40433;SDS011;26146;51.114;5.654;2022-09-03T11:37:27;5.85;;;1.45;;
40433;SDS011;26146;51.114;5.654;2022-09-03T11:41:33;5.95;;;1.58;;
40433;SDS011;26146;51.114;5.654;2022-09-03T11:45:37;5.47;;;1.48;;
40433;SDS011;26146;51.114;5.654;2022-09-03T11:49:43;6.20;;;1.50;;
40433;SDS011;26146;51.114;5.654;2022-09-03T11:53:54;5.68;;;1.50;;
40433;SDS011;26146;51.114;5.654;2022-09-03T11:57:57;6.50;;;1.70;;
40433;SDS011;26146;51.114;5.654;2022-09-03T12:23:51;5.80;;;1.75;;
40433;SDS011;26146;51.114;5.654;2022-09-03T12:27:53;8.43;;;1.98;;
40433;SDS011;26146;51.114;5.654;2022-09-03T12:31:54;6.05;;;1.80;;
40433;SDS011;26146;51.114;5.654;2022-09-03T12:36:07;5.57;;;1.80;;
40433;SDS011;26146;51.114;5.654;2022-09-03T12:40:16;5.70;;;1.90;;
40433;SDS011;26146;51.114;5.654;2022-09-03T12:44:24;6.15;;;1.70;;
40433;SDS011;26146;51.114;5.654;2022-09-03T12:48:28;5.35;;;1.60;;
40433;SDS011;26146;51.114;5.654;2022-09-03T12:52:30;7.63;;;2.10;;
40433;SDS011;26146;51.114;5.654;2022-09-03T12:56:49;6.28;;;1.67;;
40433;SDS011;26146;51.114;5.654;2022-09-03T13:00:59;6.05;;;1.80;;
40433;SDS011;26146;51.114;5.654;2022-09-03T13:05:13;5.85;;;1.85;;
40433;SDS011;26146;51.114;5.654;2022-09-03T13:09:19;5.25;;;1.70;;
40433;SDS011;26146;51.114;5.654;2022-09-03T13:13:23;5.60;;;1.60;;
40433;SDS011;26146;51.114;5.654;2022-09-03T13:26:31;5.18;;;1.70;;
40433;SDS011;26146;51.114;5.654;2022-09-03T13:30:51;6.40;;;1.80;;
40433;SDS011;26146;51.114;5.654;2022-09-03T13:35:04;6.15;;;1.70;;
40433;SDS011;26146;51.114;5.654;2022-09-03T13:39:32;7.15;;;1.80;;
40433;SDS011;26146;51.114;5.654;2022-09-03T13:45:02;6.40;;;1.60;;
40433;SDS011;26146;51.114;5.654;2022-09-03T13:49:16;5.07;;;1.60;;
40433;SDS011;26146;51.114;5.654;2022-09-03T13:58:07;5.18;;;1.60;;
40433;SDS011;26146;51.114;5.654;2022-09-03T14:02:44;6.63;;;1.70;;
40433;SDS011;26146;51.114;5.654;2022-09-03T14:07:07;7.72;;;1.70;;
40433;SDS011;26146;51.114;5.654;2022-09-03T14:15:23;6.03;;;1.60;;
40433;SDS011;26146;51.114;5.654;2022-09-03T14:23:59;4.45;;;1.38;;
40433;SDS011;26146;51.114;5.654;2022-09-03T14:28:34;4.47;;;1.30;;
40433;SDS011;26146;51.114;5.654;2022-09-03T14:36:54;2.67;;;0.80;;
40433;SDS011;26146;51.114;5.654;2022-09-03T14:45:17;3.15;;;0.77;;
40433;SDS011;26146;51.114;5.654;2022-09-03T14:49:25;2.75;;;0.90;;
40433;SDS011;26146;51.114;5.654;2022-09-03T14:58:23;3.97;;;0.85;;
40433;SDS011;26146;51.114;5.654;2022-09-03T15:11:15;4.32;;;1.00;;
40433;SDS011;26146;51.114;5.654;2022-09-03T15:24:43;5.22;;;1.10;;
40433;SDS011;26146;51.114;5.654;2022-09-03T15:37:01;3.50;;;1.13;;
40433;SDS011;26146;51.114;5.654;2022-09-03T15:54:11;4.60;;;1.27;;
40433;SDS011;26146;51.114;5.654;2022-09-03T15:58:44;3.80;;;1.20;;
40433;SDS011;26146;51.114;5.654;2022-09-03T16:03:11;4.00;;;1.23;;
40433;SDS011;26146;51.114;5.654;2022-09-03T16:07:22;4.82;;;1.45;;
40433;SDS011;26146;51.114;5.654;2022-09-03T16:16:02;5.75;;;1.58;;
40433;SDS011;26146;51.114;5.654;2022-09-03T16:24:17;6.60;;;1.85;;
40433;SDS011;26146;51.114;5.654;2022-09-03T16:32:53;5.75;;;1.67;;
40433;SDS011;26146;51.114;5.654;2022-09-03T16:42:00;4.72;;;1.50;;
40433;SDS011;26146;51.114;5.654;2022-09-03T17:16:17;5.35;;;1.65;;
40433;SDS011;26146;51.114;5.654;2022-09-03T17:25:12;6.10;;;1.53;;
40433;SDS011;26146;51.114;5.654;2022-09-03T17:30:19;5.57;;;1.60;;
40433;SDS011;26146;51.114;5.654;2022-09-03T17:34:13;4.97;;;1.70;;
40433;SDS011;26146;51.114;5.654;2022-09-03T17:42:23;5.45;;;1.70;;
40433;SDS011;26146;51.114;5.654;2022-09-03T17:55:36;9.15;;;5.82;;
40433;SDS011;26146;51.114;5.654;2022-09-03T18:04:14;6.40;;;2.28;;
40433;SDS011;26146;51.114;5.654;2022-09-03T18:12:50;8.05;;;2.13;;
40433;SDS011;26146;51.114;5.654;2022-09-03T18:17:02;6.30;;;2.00;;
40433;SDS011;26146;51.114;5.654;2022-09-03T18:21:09;7.20;;;2.20;;
40433;SDS011;26146;51.114;5.654;2022-09-03T18:25:32;7.28;;;2.53;;
40433;SDS011;26146;51.114;5.654;2022-09-03T18:34:31;6.57;;;2.40;;
40433;SDS011;26146;51.114;5.654;2022-09-03T18:38:52;8.05;;;2.35;;
40433;SDS011;26146;51.114;5.654;2022-09-03T18:57:21;6.38;;;2.40;;
40433;SDS011;26146;51.114;5.654;2022-09-03T19:01:45;6.93;;;2.70;;
40433;SDS011;26146;51.114;5.654;2022-09-03T19:10:53;6.57;;;2.83;;
40433;SDS011;26146;51.114;5.654;2022-09-03T19:15:36;6.38;;;2.67;;
40433;SDS011;26146;51.114;5.654;2022-09-03T19:24:46;7.00;;;2.75;;
40433;SDS011;26146;51.114;5.654;2022-09-03T19:29:18;7.68;;;2.40;;
40433;SDS011;26146;51.114;5.654;2022-09-03T19:57:03;7.95;;;3.28;;
40433;SDS011;26146;51.114;5.654;2022-09-03T20:01:24;6.32;;;2.80;;
40433;SDS011;26146;51.114;5.654;2022-09-03T20:05:50;6.97;;;2.63;;
40433;SDS011;26146;51.114;5.654;2022-09-03T20:10:11;6.50;;;2.42;;
40433;SDS011;26146;51.114;5.654;2022-09-03T20:14:23;5.68;;;2.45;;
40433;SDS011;26146;51.114;5.654;2022-09-03T20:18:29;8.10;;;2.75;;
40433;SDS011;26146;51.114;5.654;2022-09-03T20:22:49;6.57;;;2.90;;
40433;SDS011;26146;51.114;5.654;2022-09-03T20:39:52;6.57;;;3.17;;
40433;SDS011;26146;51.114;5.654;2022-09-03T20:44:28;6.70;;;3.05;;
40433;SDS011;26146;51.114;5.654;2022-09-03T20:49:17;6.82;;;2.90;;
40433;SDS011;26146;51.114;5.654;2022-09-03T21:02:28;6.70;;;2.70;;
40433;SDS011;26146;51.114;5.654;2022-09-03T21:11:10;7.28;;;2.80;;
40433;SDS011;26146;51.114;5.654;2022-09-03T21:15:27;8.85;;;2.80;;
40433;SDS011;26146;51.114;5.654;2022-09-03T21:24:10;7.60;;;3.40;;
40433;SDS011;26146;51.114;5.654;2022-09-03T21:32:32;6.93;;;3.25;;
40433;SDS011;26146;51.114;5.654;2022-09-03T21:36:46;6.30;;;2.78;;
40433;SDS011;26146;51.114;5.654;2022-09-03T21:45:28;6.93;;;2.85;;
40433;SDS011;26146;51.114;5.654;2022-09-03T21:49:34;7.65;;;2.83;;
40433;SDS011;26146;51.114;5.654;2022-09-03T21:53:45;6.78;;;2.90;;
40433;SDS011;26146;51.114;5.654;2022-09-03T21:58:01;7.13;;;2.58;;
40433;SDS011;26146;51.114;5.654;2022-09-03T22:02:26;6.43;;;2.80;;
40433;SDS011;26146;51.114;5.654;2022-09-03T22:06:37;6.18;;;2.60;;
40433;SDS011;26146;51.114;5.654;2022-09-03T22:11:09;8.32;;;3.17;;
40433;SDS011;26146;51.114;5.654;2022-09-03T22:15:15;8.23;;;3.20;;
40433;SDS011;26146;51.114;5.654;2022-09-03T22:19:18;6.53;;;2.88;;
40433;SDS011;26146;51.114;5.654;2022-09-03T22:23:20;6.93;;;3.15;;
40433;SDS011;26146;51.114;5.654;2022-09-03T22:27:50;8.35;;;2.97;;
40433;SDS011;26146;51.114;5.654;2022-09-03T22:32:04;7.55;;;3.40;;
40433;SDS011;26146;51.114;5.654;2022-09-03T22:36:27;7.03;;;3.50;;
40433;SDS011;26146;51.114;5.654;2022-09-03T22:40:50;8.43;;;3.20;;
40433;SDS011;26146;51.114;5.654;2022-09-03T22:49:13;6.63;;;2.90;;
40433;SDS011;26146;51.114;5.654;2022-09-03T22:58:01;7.38;;;3.10;;
40433;SDS011;26146;51.114;5.654;2022-09-03T23:02:20;7.25;;;2.88;;
40433;SDS011;26146;51.114;5.654;2022-09-03T23:06:28;6.78;;;3.20;;
40433;SDS011;26146;51.114;5.654;2022-09-03T23:10:39;8.43;;;3.50;;
40433;SDS011;26146;51.114;5.654;2022-09-03T23:14:53;8.18;;;3.50;;
40433;SDS011;26146;51.114;5.654;2022-09-03T23:23:06;7.70;;;3.10;;
40433;SDS011;26146;51.114;5.654;2022-09-03T23:27:11;6.47;;;3.03;;
40433;SDS011;26146;51.114;5.654;2022-09-03T23:31:19;7.70;;;3.05;;
40433;SDS011;26146;51.114;5.654;2022-09-03T23:35:28;6.40;;;2.85;;
40433;SDS011;26146;51.114;5.654;2022-09-03T23:39:47;7.18;;;3.28;;
40433;SDS011;26146;51.114;5.654;2022-09-03T23:53:11;8.77;;;2.92;;
40433;SDS011;26146;51.114;5.654;2022-09-03T23:57:39;6.87;;;3.00;;
